createdAt,value
2018-09-18T00:02:16.640Z,99.90
2018-09-18T00:04:44.194Z,99.90
2018-09-18T00:07:12.105Z,99.90
2018-09-18T00:09:39.698Z,99.90
2018-09-18T00:12:07.200Z,99.90
2018-09-18T00:14:34.720Z,99.90
2018-09-18T00:17:02.265Z,99.90
2018-09-18T00:19:30.030Z,99.90
2018-09-18T00:21:57.532Z,99.90
2018-09-18T00:24:25.082Z,99.90
2018-09-18T00:26:52.597Z,99.90
2018-09-18T00:29:20.242Z,99.90
2018-09-18T00:31:48.091Z,99.90
2018-09-18T00:34:15.644Z,99.90
2018-09-18T00:36:43.139Z,99.90
2018-09-18T00:39:10.985Z,99.90
2018-09-18T00:41:38.568Z,99.90
2018-09-18T00:44:06.161Z,99.90
2018-09-18T00:46:36.125Z,99.90
2018-09-18T00:49:03.605Z,99.90
2018-09-18T00:51:31.125Z,99.90
2018-09-18T00:53:58.610Z,99.90
2018-09-18T00:56:26.207Z,99.90
2018-09-18T00:58:53.694Z,99.90
2018-09-18T01:01:21.238Z,99.90
2018-09-18T01:03:48.731Z,99.90
2018-09-18T01:06:16.298Z,99.90
2018-09-18T01:08:43.800Z,99.90
2018-09-18T01:11:11.323Z,99.90
2018-09-18T01:13:38.868Z,99.90
2018-09-18T01:16:06.450Z,99.90
2018-09-18T01:18:38.633Z,99.90
2018-09-18T01:21:10.112Z,99.90
2018-09-18T01:23:37.808Z,99.90
2018-09-18T01:26:05.352Z,99.90
2018-09-18T01:28:33.171Z,99.90
2018-09-18T01:31:01.046Z,99.90
2018-09-18T01:33:28.639Z,99.90
2018-09-18T01:35:56.183Z,99.90
2018-09-18T01:38:24.158Z,99.90
2018-09-18T01:40:51.861Z,99.90
2018-09-18T01:43:19.459Z,99.90
2018-09-18T01:45:47.803Z,99.90
2018-09-18T01:48:15.320Z,99.90
2018-09-18T01:50:42.873Z,99.90
2018-09-18T01:53:10.402Z,99.90
2018-09-18T01:55:37.964Z,99.90
2018-09-18T01:58:05.529Z,99.90
2018-09-18T02:00:33.075Z,99.90
2018-09-18T02:03:01.079Z,99.90
2018-09-18T02:05:28.621Z,99.90
2018-09-18T02:07:56.175Z,99.90
2018-09-18T02:10:23.746Z,99.90
2018-09-18T02:12:51.299Z,99.90
2018-09-18T02:15:18.880Z,99.90
2018-09-18T02:17:46.695Z,99.90
2018-09-18T02:20:14.255Z,99.90
2018-09-18T02:22:41.798Z,99.90
2018-09-18T02:25:09.320Z,99.90
2018-09-18T02:27:36.846Z,99.90
2018-09-18T02:30:04.658Z,99.90
2018-09-18T02:32:32.193Z,99.90
2018-09-18T02:34:59.884Z,99.90
2018-09-18T02:37:27.439Z,99.90
2018-09-18T02:39:54.981Z,99.90
2018-09-18T02:42:22.606Z,99.90
2018-09-18T02:44:50.583Z,99.90
2018-09-18T02:47:18.159Z,99.90
2018-09-18T02:49:46.279Z,99.90
2018-09-18T02:52:13.824Z,99.90
2018-09-18T02:54:41.623Z,99.90
2018-09-18T02:57:09.195Z,99.90
2018-09-18T02:59:36.906Z,99.90
2018-09-18T03:02:04.561Z,99.90
2018-09-18T03:04:32.139Z,99.90
2018-09-18T03:07:00.066Z,99.90
2018-09-18T03:09:27.595Z,99.90
2018-09-18T03:11:55.147Z,99.90
2018-09-18T03:14:22.904Z,99.90
2018-09-18T03:16:50.431Z,99.90
2018-09-18T03:19:18.065Z,99.90
2018-09-18T03:21:46.067Z,99.90
2018-09-18T03:24:13.691Z,99.90
2018-09-18T03:26:41.276Z,99.90
2018-09-18T03:29:08.836Z,99.90
2018-09-18T03:31:36.406Z,99.90
2018-09-18T03:34:03.965Z,99.90
2018-09-18T03:36:31.535Z,99.90
2018-09-18T03:38:59.104Z,99.90
2018-09-18T03:41:26.671Z,99.90
2018-09-18T03:43:54.209Z,99.90
2018-09-18T03:46:21.771Z,99.90
2018-09-18T03:48:49.515Z,99.90
2018-09-18T03:51:17.036Z,99.90
2018-09-18T03:53:45.179Z,99.90
2018-09-18T03:56:12.730Z,99.90
2018-09-18T03:58:51.141Z,99.90
2018-09-18T04:01:18.671Z,99.90
2018-09-18T04:03:47.063Z,99.90
2018-09-18T04:06:14.632Z,99.90
2018-09-18T04:08:42.159Z,99.90
2018-09-18T04:11:09.824Z,99.90
2018-09-18T04:13:37.364Z,99.90
2018-09-18T04:16:05.041Z,99.90
2018-09-18T04:18:32.681Z,99.90
2018-09-18T04:21:00.650Z,99.90
2018-09-18T04:23:28.215Z,99.90
2018-09-18T04:25:59.482Z,99.90
2018-09-18T04:28:27.042Z,99.90
2018-09-18T04:30:54.566Z,99.90
2018-09-18T04:33:22.143Z,99.90
2018-09-18T04:35:49.677Z,99.90
2018-09-18T04:38:17.257Z,99.90
2018-09-18T04:40:45.262Z,99.90
2018-09-18T04:43:12.816Z,99.90
2018-09-18T04:45:40.559Z,99.90
2018-09-18T04:48:08.112Z,99.90
2018-09-18T04:50:35.835Z,99.90
2018-09-18T04:53:03.389Z,99.90
2018-09-18T04:55:31.031Z,99.90
2018-09-18T04:57:58.590Z,99.90
2018-09-18T05:00:26.662Z,99.90
2018-09-18T05:02:54.172Z,99.90
2018-09-18T05:05:21.740Z,99.90
2018-09-18T05:07:49.286Z,99.90
2018-09-18T05:10:16.931Z,99.90
2018-09-18T05:12:44.487Z,99.90
2018-09-18T05:15:12.120Z,99.90
2018-09-18T05:17:39.979Z,99.90
2018-09-18T05:20:07.555Z,99.90
2018-09-18T05:22:35.382Z,99.90
2018-09-18T05:25:03.748Z,99.90
2018-09-18T05:27:31.354Z,99.90
2018-09-18T05:29:58.965Z,99.90
2018-09-18T05:32:26.610Z,99.90
2018-09-18T05:34:54.190Z,99.90
2018-09-18T05:37:21.727Z,99.90
2018-09-18T05:39:49.256Z,99.90
2018-09-18T05:42:16.934Z,99.90
2018-09-18T05:44:44.573Z,99.90
2018-09-18T05:47:12.659Z,99.90
2018-09-18T05:49:40.375Z,99.90
2018-09-18T05:52:07.934Z,99.90
2018-09-18T05:54:35.623Z,99.90
2018-09-18T05:57:03.554Z,99.90
2018-09-18T05:59:31.210Z,99.90
2018-09-18T06:01:58.767Z,99.90
2018-09-18T06:04:26.314Z,99.90
2018-09-18T06:06:53.828Z,99.90
2018-09-18T06:09:21.359Z,99.90
2018-09-18T06:11:48.884Z,99.90
2018-09-18T06:14:16.467Z,99.90
2018-09-18T06:16:43.977Z,99.90
2018-09-18T06:19:11.627Z,99.90
2018-09-18T06:21:39.134Z,99.90
2018-09-18T06:24:07.186Z,99.90
2018-09-18T06:26:34.763Z,99.90
2018-09-18T06:29:02.834Z,99.90
2018-09-18T06:31:30.430Z,99.90
2018-09-18T06:33:57.968Z,99.90
2018-09-18T06:36:25.750Z,99.90
2018-09-18T06:38:53.287Z,99.90
2018-09-18T06:41:20.900Z,99.90
2018-09-18T06:43:48.492Z,99.90
2018-09-18T06:46:16.035Z,99.90
2018-09-18T06:48:43.586Z,99.90
2018-09-18T06:51:11.148Z,99.90
2018-09-18T06:53:38.715Z,99.90
2018-09-18T06:56:06.382Z,99.90
2018-09-18T06:58:33.971Z,99.90
2018-09-18T07:01:01.938Z,99.90
2018-09-18T07:03:30.495Z,99.90
2018-09-18T07:05:58.018Z,99.90
2018-09-18T07:08:25.543Z,99.90
2018-09-18T07:10:53.238Z,99.90
2018-09-18T07:13:20.786Z,99.90
2018-09-18T07:15:48.370Z,99.90
2018-09-18T07:18:16.005Z,99.90
2018-09-18T07:20:43.575Z,99.90
2018-09-18T07:23:11.130Z,99.90
2018-09-18T07:25:38.751Z,99.90
2018-09-18T07:28:06.479Z,99.90
2018-09-18T07:30:34.012Z,99.90
2018-09-18T07:33:02.131Z,99.90
2018-09-18T07:35:29.791Z,99.90
2018-09-18T07:37:57.350Z,98.30
2018-09-18T07:40:24.908Z,95.00
2018-09-18T07:42:52.427Z,94.60
2018-09-18T07:45:19.955Z,91.60
2018-09-18T07:47:47.559Z,90.00
2018-09-18T07:50:15.087Z,84.20
2018-09-18T07:52:42.689Z,82.60
2018-09-18T07:55:10.258Z,83.90
2018-09-18T07:57:37.815Z,80.40
2018-09-18T08:00:05.363Z,78.80
2018-09-18T08:02:33.069Z,71.60
2018-09-18T08:05:00.579Z,68.90
2018-09-18T08:07:28.203Z,64.40
2018-09-18T08:09:55.749Z,59.70
2018-09-18T08:12:23.276Z,58.20
2018-09-18T08:14:50.822Z,55.50
2018-09-18T08:17:18.376Z,54.80
2018-09-18T08:19:50.140Z,53.10
2018-09-18T08:22:17.588Z,52.60
2018-09-18T08:24:45.715Z,50.60
2018-09-18T08:27:13.380Z,50.20
2018-09-18T08:29:40.921Z,51.10
2018-09-18T08:32:08.467Z,49.70
2018-09-18T08:34:35.984Z,48.60
2018-09-18T08:37:04.150Z,48.80
2018-09-18T08:39:31.724Z,47.50
2018-09-18T08:41:59.317Z,47.30
2018-09-18T08:44:26.831Z,45.80
2018-09-18T08:46:54.424Z,45.60
2018-09-18T08:49:22.017Z,44.60
2018-09-18T08:51:49.553Z,44.30
2018-09-18T08:54:17.227Z,43.30
2018-09-18T08:56:44.806Z,42.90
2018-09-18T08:59:12.349Z,42.60
2018-09-18T09:01:39.918Z,41.30
2018-09-18T09:04:07.607Z,43.40
2018-09-18T09:06:35.152Z,42.30
2018-09-18T09:09:04.063Z,41.30
2018-09-18T09:11:31.765Z,41.90
2018-09-18T09:13:59.321Z,41.30
2018-09-18T09:16:26.864Z,41.70
2018-09-18T09:18:54.434Z,40.40
2018-09-18T09:21:22.084Z,40.20
2018-09-18T09:23:49.660Z,39.10
2018-09-18T09:26:17.223Z,38.40
2018-09-18T09:28:44.778Z,39.10
2018-09-18T09:31:12.333Z,38.10
2018-09-18T09:33:39.932Z,38.00
2018-09-18T09:36:07.491Z,37.80
2018-09-18T09:38:35.051Z,36.90
2018-09-18T09:41:02.860Z,36.10
2018-09-18T09:43:30.514Z,34.80
2018-09-18T09:45:58.043Z,34.90
2018-09-18T09:48:26.596Z,34.90
2018-09-18T09:50:54.125Z,34.30
2018-09-18T09:53:21.702Z,33.90
2018-09-18T09:55:49.236Z,34.60
2018-09-18T09:58:16.723Z,35.00
2018-09-18T10:00:49.784Z,34.50
2018-09-18T10:03:19.330Z,33.90
2018-09-18T10:05:47.444Z,33.20
2018-09-18T10:08:15.030Z,33.50
2018-09-18T10:10:42.699Z,33.10
2018-09-18T10:13:10.048Z,31.30
2018-09-18T10:15:37.593Z,33.30
2018-09-18T10:18:05.362Z,31.50
2018-09-18T10:20:32.970Z,30.60
2018-09-18T10:23:00.436Z,31.30
2018-09-18T10:25:27.913Z,32.30
2018-09-18T10:27:55.447Z,30.80
2018-09-18T10:30:22.948Z,31.90
2018-09-18T10:32:50.685Z,31.30
2018-09-18T10:35:18.021Z,30.60
2018-09-18T10:37:45.900Z,31.80
2018-09-18T10:40:13.409Z,32.50
2018-09-18T10:42:40.959Z,31.80
2018-09-18T10:45:08.714Z,32.40
2018-09-18T10:47:36.392Z,31.60
2018-09-18T10:50:04.506Z,32.40
2018-09-18T10:52:32.064Z,31.10
2018-09-18T10:54:59.614Z,30.10
2018-09-18T10:57:27.119Z,31.10
2018-09-18T10:59:54.675Z,31.30
2018-09-18T11:02:22.337Z,32.80
2018-09-18T11:04:50.842Z,30.40
2018-09-18T11:07:18.426Z,31.00
2018-09-18T11:09:46.414Z,32.40
2018-09-18T11:12:13.883Z,32.30
2018-09-18T11:14:41.728Z,35.50
2018-09-18T11:17:09.182Z,33.00
2018-09-18T11:19:36.756Z,33.80
2018-09-18T11:22:04.308Z,32.70
2018-09-18T11:24:31.896Z,31.20
2018-09-18T11:27:00.318Z,30.70
2018-09-18T11:29:27.891Z,31.90
2018-09-18T11:31:55.601Z,30.80
2018-09-18T11:34:23.143Z,30.80
2018-09-18T11:36:50.770Z,30.80
2018-09-18T11:39:18.334Z,32.20
2018-09-18T11:41:46.265Z,32.50
2018-09-18T11:44:13.826Z,30.30
2018-09-18T11:46:41.542Z,30.50
2018-09-18T11:49:09.062Z,29.80
2018-09-18T11:51:36.777Z,30.30
2018-09-18T11:54:04.322Z,31.90
2018-09-18T11:56:31.912Z,32.00
2018-09-18T11:58:59.458Z,31.60
2018-09-18T12:01:27.182Z,31.70
2018-09-18T12:03:54.691Z,30.80
2018-09-18T12:06:22.222Z,30.90
2018-09-18T12:08:49.804Z,31.10
2018-09-18T12:11:17.491Z,31.00
2018-09-18T12:13:44.946Z,31.80
2018-09-18T12:16:12.441Z,30.80
2018-09-18T12:18:39.943Z,30.80
2018-09-18T12:21:07.785Z,31.60
2018-09-18T12:23:35.362Z,31.80
2018-09-18T12:26:02.979Z,31.10
2018-09-18T12:28:30.711Z,30.90
2018-09-18T12:30:58.284Z,31.30
2018-09-18T12:33:25.906Z,31.50
2018-09-18T12:35:53.492Z,32.00
2018-09-18T12:38:21.174Z,31.50
2018-09-18T12:40:48.694Z,29.80
2018-09-18T12:43:16.185Z,29.70
2018-09-18T12:45:43.781Z,30.80
2018-09-18T12:48:11.973Z,31.20
2018-09-18T12:50:39.680Z,31.00
2018-09-18T12:53:07.298Z,31.00
2018-09-18T12:55:34.806Z,30.00
2018-09-18T12:58:02.313Z,32.20
2018-09-18T13:00:29.820Z,29.90
2018-09-18T13:02:57.323Z,28.20
2018-09-18T13:05:24.858Z,29.30
2018-09-18T13:07:52.396Z,28.20
2018-09-18T13:10:20.959Z,28.30
2018-09-18T13:12:48.434Z,28.50
2018-09-18T13:15:15.959Z,29.60
2018-09-18T13:17:43.490Z,29.70
2018-09-18T13:20:11.002Z,30.60
2018-09-18T13:22:38.521Z,30.90
2018-09-18T13:25:06.169Z,30.10
2018-09-18T13:27:33.669Z,30.20
2018-09-18T13:30:01.266Z,30.60
2018-09-18T13:32:28.773Z,31.20
2018-09-18T13:34:56.304Z,30.50
2018-09-18T13:37:23.785Z,30.50
2018-09-18T13:39:51.313Z,31.70
2018-09-18T13:42:18.877Z,31.80
2018-09-18T13:44:46.813Z,33.50
2018-09-18T13:47:14.338Z,33.70
2018-09-18T13:49:42.865Z,34.10
2018-09-18T13:52:10.490Z,32.80
2018-09-18T13:54:38.040Z,32.40
2018-09-18T13:57:05.593Z,32.50
2018-09-18T13:59:33.483Z,32.50
2018-09-18T14:02:00.967Z,32.80
2018-09-18T14:04:28.591Z,32.80
2018-09-18T14:06:56.165Z,32.40
2018-09-18T14:09:23.681Z,33.60
2018-09-18T14:11:51.211Z,33.20
2018-09-18T14:14:19.798Z,32.80
2018-09-18T14:16:47.758Z,33.70
2018-09-18T14:19:15.354Z,34.00
2018-09-18T14:21:43.204Z,33.90
2018-09-18T14:24:10.750Z,33.20
2018-09-18T14:26:38.458Z,33.70
2018-09-18T14:29:06.274Z,33.00
2018-09-18T14:31:33.780Z,33.00
2018-09-18T14:34:01.399Z,34.50
2018-09-18T14:36:28.926Z,35.30
2018-09-18T14:38:56.413Z,36.10
2018-09-18T14:41:23.942Z,36.50
2018-09-18T14:43:51.433Z,37.30
2018-09-18T14:46:18.939Z,36.60
2018-09-18T14:48:46.849Z,37.00
2018-09-18T14:51:14.409Z,37.90
2018-09-18T14:53:42.002Z,36.90
2018-09-18T14:56:09.561Z,36.60
2018-09-18T14:58:37.050Z,37.90
2018-09-18T15:01:04.598Z,38.00
2018-09-18T15:03:32.218Z,38.10
2018-09-18T15:05:59.729Z,38.80
2018-09-18T15:08:27.390Z,38.10
2018-09-18T15:10:54.888Z,37.90
2018-09-18T15:13:22.423Z,38.90
2018-09-18T15:15:49.976Z,38.70
2018-09-18T15:18:17.543Z,38.50
2018-09-18T15:20:45.277Z,39.20
2018-09-18T15:23:12.809Z,39.30
2018-09-18T15:25:40.309Z,40.10
2018-09-18T15:28:07.850Z,40.70
2018-09-18T15:30:35.331Z,40.50
2018-09-18T15:33:02.836Z,40.70
2018-09-18T15:35:30.339Z,40.80
2018-09-18T15:37:57.847Z,41.80
2018-09-18T15:40:25.414Z,42.40
2018-09-18T15:42:57.996Z,42.90
2018-09-18T15:45:25.577Z,43.00
2018-09-18T15:47:53.069Z,43.40
2018-09-18T15:50:20.614Z,44.00
2018-09-18T15:52:48.584Z,44.00
2018-09-18T15:55:16.160Z,44.00
2018-09-18T15:57:43.934Z,44.00
2018-09-18T16:00:11.768Z,44.70
2018-09-18T16:02:39.335Z,44.10
2018-09-18T16:05:06.866Z,44.20
2018-09-18T16:07:35.340Z,44.40
2018-09-18T16:10:02.901Z,44.00
2018-09-18T16:12:32.951Z,44.50
2018-09-18T16:15:00.625Z,46.70
2018-09-18T16:17:28.159Z,47.80
2018-09-18T16:19:55.708Z,48.60
2018-09-18T16:22:23.395Z,50.00
2018-09-18T16:24:51.123Z,48.90
2018-09-18T16:27:18.675Z,47.40
2018-09-18T16:29:46.800Z,46.90
2018-09-18T16:32:14.472Z,48.30
2018-09-18T16:34:42.093Z,49.50
2018-09-18T16:37:09.841Z,50.20
2018-09-18T16:39:37.493Z,51.40
2018-09-18T16:42:05.135Z,51.40
2018-09-18T16:44:32.686Z,51.70
2018-09-18T16:47:00.252Z,52.30
2018-09-18T16:49:27.938Z,52.70
2018-09-18T16:51:55.548Z,53.20
2018-09-18T16:54:23.250Z,53.60
2018-09-18T16:56:50.903Z,54.00
2018-09-18T16:59:18.513Z,54.60
2018-09-18T17:01:46.499Z,55.00
2018-09-18T17:04:14.039Z,55.80
2018-09-18T17:06:41.677Z,55.90
2018-09-18T17:09:09.696Z,56.50
2018-09-18T17:11:37.690Z,56.90
2018-09-18T17:14:05.358Z,57.20
2018-09-18T17:16:33.211Z,57.50
2018-09-18T17:19:00.725Z,57.80
2018-09-18T17:21:28.357Z,58.90
2018-09-18T17:23:56.177Z,58.70
2018-09-18T17:26:23.995Z,59.10
2018-09-18T17:28:51.826Z,59.60
2018-09-18T17:31:31.748Z,59.80
2018-09-18T17:34:01.732Z,60.30
2018-09-18T17:36:31.410Z,60.80
2018-09-18T17:38:59.114Z,61.20
2018-09-18T17:41:27.768Z,62.10
2018-09-18T17:43:57.594Z,62.60
2018-09-18T17:46:25.265Z,63.10
2018-09-18T17:48:52.916Z,64.00
2018-09-18T17:51:20.625Z,64.90
2018-09-18T17:53:48.631Z,65.00
2018-09-18T17:56:16.272Z,62.50
2018-09-18T17:58:43.866Z,60.10
2018-09-18T18:01:15.300Z,60.20
2018-09-18T18:03:42.849Z,62.00
2018-09-18T18:06:10.587Z,62.20
2018-09-18T18:08:38.462Z,61.10
2018-09-18T18:11:06.061Z,59.70
2018-09-18T18:13:34.182Z,60.10
2018-09-18T18:16:02.665Z,60.20
2018-09-18T18:18:30.367Z,62.40
2018-09-18T18:20:58.483Z,62.30
2018-09-18T18:23:25.960Z,63.00
2018-09-18T18:25:53.504Z,63.70
2018-09-18T18:28:21.125Z,65.40
2018-09-18T18:30:49.958Z,65.80
2018-09-18T18:33:17.666Z,66.60
2018-09-18T18:35:45.589Z,68.20
2018-09-18T18:38:15.314Z,69.70
2018-09-18T18:40:43.316Z,74.50
2018-09-18T18:43:11.506Z,80.60
2018-09-18T18:45:39.247Z,89.40
2018-09-18T18:48:07.243Z,94.70
2018-09-18T18:50:34.826Z,99.60
2018-09-18T18:53:02.915Z,99.90
2018-09-18T18:55:30.626Z,99.90
2018-09-18T18:57:59.304Z,99.90
2018-09-18T19:00:26.899Z,99.90
2018-09-18T19:02:54.896Z,99.90
2018-09-18T19:05:22.634Z,99.90
2018-09-18T19:07:50.257Z,99.90
2018-09-18T19:10:17.953Z,99.90
2018-09-18T19:12:45.860Z,99.90
2018-09-18T19:15:13.552Z,99.90
2018-09-18T19:17:41.291Z,99.90
2018-09-18T19:20:08.825Z,99.90
2018-09-18T19:22:36.455Z,99.90
2018-09-18T19:25:04.161Z,99.90
2018-09-18T19:27:31.829Z,99.90
2018-09-18T19:29:59.378Z,99.90
2018-09-18T19:32:27.868Z,99.90
2018-09-18T19:34:55.463Z,99.90
2018-09-18T19:37:23.357Z,99.90
2018-09-18T19:39:50.910Z,99.90
2018-09-18T19:42:19.409Z,99.90
2018-09-18T19:44:47.341Z,99.90
2018-09-18T19:47:14.906Z,99.90
2018-09-18T19:49:42.442Z,99.90
2018-09-18T19:52:10.770Z,99.90
2018-09-18T19:54:40.106Z,99.90
2018-09-18T19:57:12.976Z,99.90
2018-09-18T19:59:43.852Z,99.90
2018-09-18T20:02:14.301Z,99.90
2018-09-18T20:04:47.628Z,99.90
2018-09-18T20:07:18.766Z,99.90
2018-09-18T20:09:48.843Z,99.90
2018-09-18T20:12:19.304Z,99.90
2018-09-18T20:14:54.228Z,99.90
2018-09-18T20:17:24.596Z,99.90
2018-09-18T20:19:54.852Z,99.90
2018-09-18T20:22:25.947Z,99.90
2018-09-18T20:24:56.937Z,99.90
2018-09-18T20:27:26.175Z,99.90
2018-09-18T20:29:58.152Z,99.90
2018-09-18T20:32:30.596Z,99.90
2018-09-18T20:35:06.390Z,99.90
2018-09-18T20:37:37.912Z,99.90
2018-09-18T20:40:11.274Z,99.90
2018-09-18T20:42:47.251Z,99.90
2018-09-18T20:45:19.931Z,99.90
2018-09-18T20:47:51.915Z,99.90
2018-09-18T20:50:27.226Z,99.90
2018-09-18T20:53:03.674Z,99.90
2018-09-18T20:55:37.404Z,99.90
2018-09-18T20:58:05.162Z,99.90
2018-09-18T21:00:40.066Z,99.90
2018-09-18T21:03:12.038Z,99.90
2018-09-18T21:05:42.233Z,99.90
2018-09-18T21:08:13.637Z,99.90
2018-09-18T21:10:44.133Z,99.90
2018-09-18T21:13:18.408Z,99.90
2018-09-18T21:15:48.984Z,99.90
2018-09-18T21:18:19.678Z,99.90
2018-09-18T21:20:50.520Z,99.90
2018-09-18T21:23:21.975Z,99.90
2018-09-18T21:26:05.547Z,99.90
2018-09-18T21:28:33.238Z,99.90
2018-09-18T21:31:05.115Z,99.90
2018-09-18T21:33:37.049Z,99.90
2018-09-18T21:36:04.749Z,99.90
2018-09-18T21:38:32.555Z,99.90
2018-09-18T21:41:00.165Z,99.90
2018-09-18T21:43:28.572Z,99.90
2018-09-18T21:45:56.354Z,99.90
2018-09-18T21:48:23.935Z,99.90
2018-09-18T21:50:51.540Z,99.90
2018-09-18T21:53:21.161Z,99.90
2018-09-18T21:55:49.926Z,99.90
2018-09-18T21:58:17.450Z,99.90
2018-09-18T22:00:45.115Z,99.90
2018-09-18T22:03:12.690Z,99.90
2018-09-18T22:05:40.300Z,99.90
2018-09-18T22:08:07.823Z,99.90
2018-09-18T22:10:35.402Z,99.90
2018-09-18T22:13:03.132Z,99.90
2018-09-18T22:15:31.519Z,99.90
2018-09-18T22:17:59.059Z,99.90
2018-09-18T22:23:00.023Z,99.90
2018-09-18T22:25:27.580Z,99.90
2018-09-18T22:27:55.179Z,99.90
2018-09-18T22:30:22.791Z,99.90
2018-09-18T22:32:51.338Z,99.90
2018-09-18T22:35:18.891Z,99.90
2018-09-18T22:37:47.413Z,99.90
2018-09-18T22:40:14.964Z,99.90
2018-09-18T22:42:43.645Z,99.90
2018-09-18T22:45:14.338Z,99.90
2018-09-18T22:47:44.654Z,99.90
2018-09-18T22:50:12.743Z,99.90
2018-09-18T22:52:40.328Z,99.90
2018-09-18T22:55:07.988Z,99.90
2018-09-18T22:57:35.523Z,99.90
2018-09-18T23:00:10.148Z,99.90
2018-09-18T23:02:38.411Z,99.90
2018-09-18T23:05:06.284Z,99.90
2018-09-18T23:07:40.251Z,99.90
2018-09-18T23:10:11.312Z,99.90
2018-09-18T23:12:38.959Z,99.90
2018-09-18T23:15:06.575Z,99.90
2018-09-18T23:17:34.238Z,99.90
2018-09-18T23:20:06.714Z,99.90
2018-09-18T23:22:34.797Z,99.90
2018-09-18T23:25:10.447Z,99.90
2018-09-18T23:27:38.055Z,99.90
2018-09-18T23:30:05.990Z,99.90
2018-09-18T23:32:33.567Z,99.90
2018-09-18T23:35:01.083Z,99.90
2018-09-18T23:37:32.165Z,99.90
2018-09-18T23:40:00.755Z,99.90
2018-09-18T23:42:28.526Z,99.90
2018-09-18T23:44:56.062Z,99.90
2018-09-18T23:47:23.577Z,99.90
2018-09-18T23:49:51.156Z,99.90
2018-09-18T23:52:18.665Z,99.90
2018-09-18T23:54:48.345Z,99.90
2018-09-18T23:57:15.938Z,99.90
2018-09-18T23:59:47.048Z,99.90
